createdAt,value
2022-09-02T00:02:43.345Z,1.00
2022-09-02T00:05:46.042Z,1.00
2022-09-02T00:08:48.324Z,1.33
2022-09-02T00:11:51.530Z,1.00
2022-09-02T00:14:53.759Z,1.00
2022-09-02T00:17:56.407Z,1.00
2022-09-02T00:21:01.475Z,0.95
2022-09-02T00:24:05.634Z,1.17
2022-09-02T00:27:07.891Z,0.90
2022-09-02T00:30:10.832Z,1.02
2022-09-02T00:33:13.557Z,1.10
2022-09-02T00:36:15.911Z,1.02
2022-09-02T00:39:18.653Z,1.08
2022-09-02T00:42:22.338Z,1.08
2022-09-02T00:45:25.197Z,1.10
2022-09-02T00:48:27.415Z,1.08
2022-09-02T00:51:36.970Z,1.35
2022-09-02T00:54:48.427Z,1.10
2022-09-02T00:57:59.881Z,1.08
2022-09-02T01:01:02.292Z,1.10
2022-09-02T01:04:04.873Z,1.30
2022-09-02T01:07:07.739Z,1.00
2022-09-02T01:10:14.877Z,1.15
2022-09-02T01:13:20.398Z,1.13
2022-09-02T01:16:37.462Z,1.30
2022-09-02T01:19:44.373Z,1.05
2022-09-02T01:22:47.231Z,0.95
2022-09-02T01:25:49.568Z,1.10
2022-09-02T01:28:51.796Z,1.00
2022-09-02T01:31:54.843Z,1.17
2022-09-02T01:34:58.040Z,0.90
2022-09-02T01:38:02.749Z,1.10
2022-09-02T01:41:05.150Z,1.10
2022-09-02T01:44:08.547Z,1.10
2022-09-02T01:47:16.252Z,1.20
2022-09-02T01:50:20.171Z,1.20
2022-09-02T01:53:23.267Z,0.93
2022-09-02T01:56:27.357Z,1.05
2022-09-02T01:59:29.694Z,1.02
2022-09-02T02:02:31.986Z,1.20
2022-09-02T02:05:37.478Z,1.15
2022-09-02T02:08:40.914Z,1.15
2022-09-02T02:11:43.903Z,1.05
2022-09-02T02:14:47.141Z,0.95
2022-09-02T02:17:49.917Z,1.30
2022-09-02T02:20:52.180Z,1.10
2022-09-02T02:23:54.616Z,0.85
2022-09-02T02:26:56.919Z,1.08
2022-09-02T02:29:59.342Z,0.95
2022-09-02T02:33:01.646Z,1.55
2022-09-02T02:36:05.532Z,1.05
2022-09-02T02:39:09.928Z,1.40
2022-09-02T02:42:16.105Z,1.30
2022-09-02T02:45:18.617Z,1.10
2022-09-02T02:48:22.206Z,1.50
2022-09-02T02:51:24.991Z,0.98
2022-09-02T02:54:34.909Z,1.38
2022-09-02T02:57:41.105Z,1.17
2022-09-02T03:00:43.551Z,1.20
2022-09-02T03:03:45.941Z,1.20
2022-09-02T03:06:48.386Z,1.13
2022-09-02T03:09:50.657Z,1.05
2022-09-02T03:12:53.408Z,1.10
2022-09-02T03:15:56.325Z,1.10
2022-09-02T03:18:58.811Z,1.27
2022-09-02T03:22:01.117Z,1.10
2022-09-02T03:25:08.772Z,1.20
2022-09-02T03:28:11.921Z,1.08
2022-09-02T03:31:17.983Z,1.25
2022-09-02T03:34:20.308Z,1.20
2022-09-02T03:37:22.858Z,0.85
2022-09-02T03:40:27.531Z,1.00
2022-09-02T03:43:30.212Z,1.30
2022-09-02T03:46:33.649Z,1.20
2022-09-02T03:49:36.295Z,1.17
2022-09-02T03:52:38.640Z,1.35
2022-09-02T03:55:41.005Z,1.15
2022-09-02T03:58:45.910Z,1.08
2022-09-02T04:01:49.093Z,1.20
2022-09-02T04:04:51.412Z,1.17
2022-09-02T04:07:53.775Z,1.30
2022-09-02T04:10:56.430Z,1.20
2022-09-02T04:13:59.251Z,1.17
2022-09-02T04:17:03.974Z,1.05
2022-09-02T04:20:08.366Z,1.10
2022-09-02T04:23:11.022Z,1.08
2022-09-02T04:26:16.978Z,1.10
2022-09-02T04:29:19.464Z,1.05
2022-09-02T04:32:26.790Z,1.08
2022-09-02T04:35:29.467Z,1.40
2022-09-02T04:38:32.805Z,2.05
2022-09-02T04:41:36.243Z,1.10
2022-09-02T04:44:42.402Z,1.30
2022-09-02T04:47:44.889Z,1.60
2022-09-02T04:50:50.490Z,1.65
2022-09-02T04:53:54.857Z,2.10
2022-09-02T04:56:57.089Z,1.90
2022-09-02T05:00:02.063Z,2.10
2022-09-02T05:03:05.416Z,2.17
2022-09-02T05:06:10.677Z,2.50
2022-09-02T05:09:15.677Z,2.10
2022-09-02T05:12:18.429Z,2.25
2022-09-02T05:15:26.839Z,3.00
2022-09-02T05:18:30.383Z,2.65
2022-09-02T05:21:33.442Z,2.17
2022-09-02T05:24:37.320Z,2.17
2022-09-02T05:27:43.137Z,2.53
2022-09-02T05:30:46.149Z,2.10
2022-09-02T05:33:48.909Z,1.90
2022-09-02T05:36:54.964Z,1.90
2022-09-02T05:39:57.430Z,1.52
2022-09-02T05:43:00.764Z,1.60
2022-09-02T05:46:08.385Z,1.77
2022-09-02T05:49:18.091Z,1.85
2022-09-02T05:52:28.999Z,1.50
2022-09-02T05:55:34.615Z,1.60
2022-09-02T05:58:36.867Z,1.50
2022-09-02T06:01:39.609Z,1.40
2022-09-02T06:04:48.388Z,1.60
2022-09-02T06:07:51.530Z,1.50
2022-09-02T06:10:56.862Z,1.77
2022-09-02T06:14:02.147Z,1.40
2022-09-02T06:17:05.984Z,1.50
2022-09-02T06:20:17.530Z,1.38
2022-09-02T06:23:20.269Z,1.55
2022-09-02T06:26:23.881Z,1.08
2022-09-02T06:29:26.950Z,1.35
2022-09-02T06:32:29.997Z,1.20
2022-09-02T06:35:40.825Z,1.83
2022-09-02T06:38:48.395Z,1.45
2022-09-02T06:41:52.771Z,1.30
2022-09-02T06:44:56.997Z,1.20
2022-09-02T06:48:00.027Z,1.20
2022-09-02T06:51:02.789Z,1.17
2022-09-02T06:54:08.700Z,1.45
2022-09-02T06:57:13.124Z,1.30
2022-09-02T07:00:16.978Z,1.30
2022-09-02T07:03:37.848Z,1.50
2022-09-02T07:06:43.584Z,1.25
2022-09-02T07:09:46.746Z,1.00
2022-09-02T07:12:52.379Z,1.02
2022-09-02T07:15:54.657Z,1.20
2022-09-02T07:19:01.286Z,1.10
2022-09-02T07:22:05.932Z,1.35
2022-09-02T07:25:11.486Z,1.58
2022-09-02T07:28:14.098Z,1.00
2022-09-02T07:31:17.834Z,1.20
2022-09-02T07:34:20.754Z,1.30
2022-09-02T07:37:25.303Z,0.93
2022-09-02T07:40:30.246Z,1.20
2022-09-02T07:43:34.163Z,1.23
2022-09-02T07:46:38.049Z,1.15
2022-09-02T07:53:06.531Z,1.13
2022-09-02T07:56:10.134Z,1.58
2022-09-02T07:59:12.541Z,1.25
2022-09-02T08:02:18.805Z,1.00
2022-09-02T08:05:21.856Z,1.55
2022-09-02T08:08:26.411Z,1.00
2022-09-02T08:11:29.067Z,1.20
2022-09-02T08:14:31.263Z,1.10
2022-09-02T08:17:33.896Z,1.30
2022-09-02T08:20:36.427Z,1.20
2022-09-02T08:23:39.658Z,1.42
2022-09-02T08:26:42.152Z,1.20
2022-09-02T08:29:44.498Z,1.23
2022-09-02T08:32:46.740Z,0.93
2022-09-02T08:35:49.010Z,1.35
2022-09-02T08:38:51.387Z,1.10
2022-09-02T08:45:40.550Z,1.60
2022-09-02T08:48:53.052Z,1.15
2022-09-02T08:52:01.689Z,1.13
2022-09-02T08:55:06.406Z,1.10
2022-09-02T08:58:08.658Z,1.27
2022-09-02T09:01:31.297Z,1.13
2022-09-02T09:04:54.872Z,0.88
2022-09-02T09:08:00.019Z,1.00
2022-09-02T09:11:29.030Z,1.10
2022-09-02T09:14:56.231Z,1.00
2022-09-02T09:18:05.576Z,1.10
2022-09-02T09:21:11.003Z,0.90
2022-09-02T09:24:38.472Z,1.33
2022-09-02T09:27:40.827Z,1.27
2022-09-02T09:30:43.102Z,1.20
2022-09-02T09:34:03.177Z,0.90
2022-09-02T09:37:05.400Z,1.00
2022-09-02T09:40:23.216Z,1.00
2022-09-02T09:43:31.237Z,1.10
2022-09-02T09:46:33.508Z,1.05
2022-09-02T09:49:37.380Z,1.00
2022-09-02T09:52:39.763Z,0.88
2022-09-02T09:56:05.437Z,0.90
2022-09-02T09:59:09.834Z,1.10
2022-09-02T10:02:26.244Z,1.05
2022-09-02T10:05:36.023Z,0.90
2022-09-02T10:08:56.471Z,1.10
2022-09-02T10:12:05.151Z,1.00
2022-09-02T10:15:08.414Z,1.10
2022-09-02T10:18:52.518Z,1.00
2022-09-02T10:25:07.904Z,0.90
2022-09-02T10:28:19.108Z,1.20
2022-09-02T10:31:29.538Z,0.88
2022-09-02T10:34:56.906Z,1.38
2022-09-02T10:38:27.145Z,1.13
2022-09-02T10:45:32.804Z,1.00
2022-09-02T10:48:48.610Z,0.88
2022-09-02T10:52:27.783Z,0.90
2022-09-02T10:55:49.402Z,0.90
2022-09-02T10:58:57.705Z,0.90
2022-09-02T11:02:09.744Z,0.85
2022-09-02T11:05:28.699Z,0.98
2022-09-02T11:09:02.043Z,1.15
2022-09-02T11:12:20.042Z,0.95
2022-09-02T11:15:39.715Z,0.77
2022-09-02T11:19:27.479Z,0.80
2022-09-02T11:22:48.400Z,0.80
2022-09-02T11:26:41.667Z,0.82
2022-09-02T11:30:02.303Z,0.93
2022-09-02T11:33:26.705Z,0.73
2022-09-02T11:36:33.404Z,1.05
2022-09-02T11:40:23.329Z,1.00
2022-09-02T11:43:43.288Z,1.03
2022-09-02T11:47:02.627Z,0.98
2022-09-02T11:50:17.474Z,0.95
2022-09-02T11:53:27.564Z,0.82
2022-09-02T11:56:47.300Z,1.20
2022-09-02T11:59:52.151Z,0.80
2022-09-02T12:03:38.800Z,1.00
2022-09-02T12:07:10.205Z,0.73
2022-09-02T12:10:48.563Z,0.93
2022-09-02T12:13:51.241Z,0.80
2022-09-02T12:17:08.881Z,0.90
2022-09-02T12:20:39.020Z,1.08
2022-09-02T12:23:53.871Z,1.00
2022-09-02T12:26:56.005Z,0.80
2022-09-02T12:29:58.977Z,0.98
2022-09-02T12:33:12.676Z,0.85
2022-09-02T12:36:42.832Z,1.00
2022-09-02T12:39:53.280Z,0.80
2022-09-02T12:43:00.056Z,1.00
2022-09-02T12:46:28.699Z,0.80
2022-09-02T12:49:43.055Z,0.68
2022-09-02T12:52:48.168Z,1.00
2022-09-02T12:56:13.512Z,0.90
2022-09-02T12:59:46.445Z,0.90
2022-09-02T13:03:22.437Z,1.15
2022-09-02T13:06:33.474Z,0.90
2022-09-02T13:09:38.386Z,0.85
2022-09-02T13:13:02.554Z,0.90
2022-09-02T13:16:15.577Z,1.15
2022-09-02T13:19:43.435Z,1.17
2022-09-02T13:23:00.916Z,0.90
2022-09-02T13:26:27.434Z,0.98
2022-09-02T13:30:08.099Z,1.20
2022-09-02T13:33:12.300Z,0.90
2022-09-02T13:36:31.010Z,1.05
2022-09-02T13:39:40.708Z,0.88
2022-09-02T13:42:51.864Z,1.30
2022-09-02T13:45:59.678Z,1.33
2022-09-02T13:49:01.904Z,1.30
2022-09-02T13:52:07.879Z,1.20
2022-09-02T13:55:14.543Z,1.10
2022-09-02T13:58:40.351Z,1.50
2022-09-02T14:01:42.673Z,1.33
2022-09-02T14:04:45.129Z,0.90
2022-09-02T14:07:50.690Z,1.13
2022-09-02T14:10:54.198Z,1.20
2022-09-02T14:13:57.790Z,1.30
2022-09-02T14:17:23.448Z,1.10
2022-09-02T14:20:25.753Z,1.10
2022-09-02T14:23:30.841Z,1.40
2022-09-02T14:26:37.498Z,0.98
2022-09-02T14:29:48.509Z,0.98
2022-09-02T14:33:17.828Z,1.38
2022-09-02T14:36:21.492Z,1.30
2022-09-02T14:39:23.734Z,1.40
2022-09-02T14:42:29.412Z,1.50
2022-09-02T14:45:33.848Z,1.10
2022-09-02T14:48:39.024Z,1.30
2022-09-02T14:51:54.124Z,1.20
2022-09-02T14:54:58.346Z,1.55
2022-09-02T14:58:04.105Z,1.52
2022-09-02T15:01:08.641Z,1.35
2022-09-02T15:04:11.058Z,1.38
2022-09-02T15:07:16.868Z,1.48
2022-09-02T15:10:19.171Z,1.48
2022-09-02T15:13:27.796Z,1.20
2022-09-02T15:16:30.001Z,1.15
2022-09-02T15:19:33.489Z,0.90
2022-09-02T15:22:36.211Z,1.27
2022-09-02T15:25:38.412Z,1.40
2022-09-02T15:28:40.983Z,1.02
2022-09-02T15:31:43.206Z,0.85
2022-09-02T15:34:45.461Z,1.42
2022-09-02T15:37:50.503Z,1.40
2022-09-02T15:40:52.679Z,1.30
2022-09-02T15:43:54.961Z,1.08
2022-09-02T15:46:57.181Z,1.20
2022-09-02T15:49:59.576Z,1.23
2022-09-02T15:53:01.821Z,1.25
2022-09-02T15:56:04.014Z,1.63
2022-09-02T15:59:12.824Z,1.17
2022-09-02T16:02:15.159Z,1.02
2022-09-02T16:05:17.481Z,0.77
2022-09-02T16:08:19.776Z,1.02
2022-09-02T16:11:23.044Z,1.00
2022-09-02T16:14:25.783Z,1.10
2022-09-02T16:17:28.872Z,1.08
2022-09-02T16:20:31.046Z,1.10
2022-09-02T16:23:34.475Z,1.15
2022-09-02T16:26:38.775Z,1.05
2022-09-02T16:29:42.124Z,1.25
2022-09-02T16:32:44.657Z,0.90
2022-09-02T16:35:46.831Z,0.93
2022-09-02T16:38:48.992Z,1.00
2022-09-02T16:41:54.370Z,0.95
2022-09-02T16:44:56.605Z,1.10
2022-09-02T16:47:58.803Z,0.95
2022-09-02T16:51:05.237Z,0.90
2022-09-02T16:54:09.511Z,0.98
2022-09-02T16:57:20.146Z,0.90
2022-09-02T17:00:24.009Z,0.90
2022-09-02T17:03:26.450Z,1.10
2022-09-02T17:06:30.174Z,0.90
2022-09-02T17:09:32.355Z,1.00
2022-09-02T17:12:34.569Z,1.10
2022-09-02T17:15:36.838Z,1.00
2022-09-02T17:18:39.163Z,1.00
2022-09-02T17:21:50.982Z,1.15
2022-09-02T17:24:53.899Z,0.90
2022-09-02T17:27:56.153Z,0.95
2022-09-02T17:30:59.106Z,1.25
2022-09-02T17:34:04.482Z,1.00
2022-09-02T17:37:06.970Z,0.98
2022-09-02T17:40:28.622Z,0.90
2022-09-02T17:43:31.392Z,1.20
2022-09-02T17:46:33.614Z,1.10
2022-09-02T17:49:37.443Z,1.42
2022-09-02T17:52:39.577Z,1.50
2022-09-02T17:55:42.386Z,1.75
2022-09-02T17:59:02.248Z,2.17
2022-09-02T18:05:43.664Z,1.27
2022-09-02T18:08:55.296Z,1.35
2022-09-02T18:11:57.928Z,1.23
2022-09-02T18:15:02.456Z,1.35
2022-09-02T18:18:06.009Z,1.10
2022-09-02T18:21:24.155Z,2.80
2022-09-02T18:24:56.652Z,1.60
2022-09-02T18:28:02.102Z,1.67
2022-09-02T18:31:34.197Z,1.52
2022-09-02T18:35:00.411Z,1.98
2022-09-02T18:38:21.688Z,2.80
2022-09-02T18:41:24.322Z,3.60
2022-09-02T18:44:38.459Z,2.63
2022-09-02T18:47:52.972Z,2.60
2022-09-02T18:51:03.003Z,2.05
2022-09-02T18:54:23.001Z,2.88
2022-09-02T19:00:41.768Z,3.30
2022-09-02T19:03:44.098Z,3.17
2022-09-02T19:06:48.271Z,2.80
2022-09-02T19:09:51.056Z,2.38
2022-09-02T19:12:55.559Z,2.47
2022-09-02T19:16:02.631Z,2.80
2022-09-02T19:19:07.996Z,3.35
2022-09-02T19:22:11.244Z,3.53
2022-09-02T19:25:21.536Z,3.35
2022-09-02T19:28:24.180Z,4.03
2022-09-02T19:31:29.786Z,4.20
2022-09-02T19:34:37.412Z,4.10
2022-09-02T19:37:44.598Z,4.20
2022-09-02T19:40:49.486Z,3.40
2022-09-02T19:43:51.924Z,3.67
2022-09-02T19:47:42.218Z,3.88
2022-09-02T19:50:17.564Z,3.95
2022-09-02T19:53:30.527Z,5.00
2022-09-02T19:56:32.773Z,5.05
2022-09-02T19:59:35.180Z,4.32
2022-09-02T20:02:40.333Z,4.93
2022-09-02T20:05:42.738Z,5.22
2022-09-02T20:08:44.992Z,4.97
2022-09-02T20:11:47.134Z,5.40
2022-09-02T20:14:49.527Z,5.25
2022-09-02T20:17:51.853Z,4.75
2022-09-02T20:20:57.415Z,3.72
2022-09-02T20:24:05.309Z,4.00
2022-09-02T20:27:44.092Z,3.47
2022-09-02T20:30:52.411Z,3.30
2022-09-02T20:34:27.440Z,3.15
2022-09-02T20:37:50.717Z,2.88
2022-09-02T20:41:29.437Z,2.60
2022-09-02T20:44:46.101Z,2.70
2022-09-02T20:48:10.547Z,3.40
2022-09-02T20:51:23.673Z,3.47
2022-09-02T20:54:48.330Z,3.35
2022-09-02T20:58:18.722Z,2.97
2022-09-02T21:01:36.428Z,2.42
2022-09-02T21:04:43.214Z,1.85
2022-09-02T21:07:48.780Z,2.05
2022-09-02T21:11:00.089Z,1.98
2022-09-02T21:14:14.830Z,2.60
2022-09-02T21:17:29.609Z,2.63
2022-09-02T21:20:46.657Z,2.53
2022-09-02T21:24:12.987Z,3.20
2022-09-02T21:27:33.575Z,2.60
2022-09-02T21:30:45.931Z,2.83
2022-09-02T21:33:51.201Z,3.50
2022-09-02T21:36:57.724Z,3.70
2022-09-02T21:40:06.893Z,3.58
2022-09-02T21:43:46.945Z,2.97
2022-09-02T21:47:01.754Z,3.33
2022-09-02T21:50:07.215Z,3.38
2022-09-02T21:53:51.105Z,3.70
2022-09-02T21:57:20.734Z,2.80
2022-09-02T22:00:23.309Z,3.47
2022-09-02T22:03:46.360Z,3.80
2022-09-02T22:06:52.300Z,2.70
2022-09-02T22:10:16.211Z,2.78
2022-09-02T22:13:18.683Z,2.35
2022-09-02T22:16:46.177Z,2.70
2022-09-02T22:19:56.626Z,2.50
2022-09-02T22:23:09.434Z,2.60
2022-09-02T22:26:24.781Z,2.42
2022-09-02T22:29:36.697Z,2.85
2022-09-02T22:32:52.987Z,2.17
2022-09-02T22:36:06.565Z,2.30
2022-09-02T22:39:11.682Z,2.42
2022-09-02T22:42:39.404Z,2.03
2022-09-02T22:46:07.161Z,2.10
2022-09-02T22:49:35.267Z,2.50
2022-09-02T22:52:55.149Z,2.78
2022-09-02T22:59:48.878Z,2.35
2022-09-02T23:03:02.417Z,2.08
2022-09-02T23:06:21.555Z,2.00
2022-09-02T23:09:23.895Z,1.90
2022-09-02T23:12:45.062Z,2.40
2022-09-02T23:16:06.739Z,1.85
2022-09-02T23:19:18.427Z,2.40
2022-09-02T23:22:48.499Z,2.58
2022-09-02T23:26:31.943Z,2.90
2022-09-02T23:29:35.706Z,2.10
2022-09-02T23:32:43.783Z,2.05
2022-09-02T23:36:08.279Z,2.30
2022-09-02T23:39:36.699Z,2.10
2022-09-02T23:42:39.584Z,2.10
2022-09-02T23:45:41.932Z,2.17
2022-09-02T23:49:06.848Z,4.13
2022-09-02T23:52:56.615Z,3.20
2022-09-02T23:59:46.620Z,3.38
